sensor_id;sensor_type;location;lat;lon;timestamp;P1;durP1;ratioP1;P2;durP2;ratioP2
49241;SDS011;35079;52.704;13.814;2023-04-24T00:00:00;11.95;;;8.90;;
49241;SDS011;35079;52.704;13.814;2023-04-24T00:02:26;10.13;;;8.70;;
49241;SDS011;35079;52.704;13.814;2023-04-24T00:04:52;11.93;;;9.93;;
49241;SDS011;35079;52.704;13.814;2023-04-24T00:07:17;12.73;;;10.98;;
49241;SDS011;35079;52.704;13.814;2023-04-24T00:09:45;13.20;;;9.98;;
49241;SDS011;35079;52.704;13.814;2023-04-24T00:12:10;12.75;;;10.00;;
49241;SDS011;35079;52.704;13.814;2023-04-24T00:14:36;12.88;;;10.27;;
49241;SDS011;35079;52.704;13.814;2023-04-24T00:17:02;11.07;;;9.50;;
49241;SDS011;35079;52.704;13.814;2023-04-24T00:19:28;11.55;;;9.35;;
49241;SDS011;35079;52.704;13.814;2023-04-24T00:21:54;13.25;;;9.88;;
49241;SDS011;35079;52.704;13.814;2023-04-24T00:24:20;12.57;;;10.10;;
49241;SDS011;35079;52.704;13.814;2023-04-24T00:26:46;13.40;;;10.55;;
49241;SDS011;35079;52.704;13.814;2023-04-24T00:29:12;13.15;;;10.07;;
49241;SDS011;35079;52.704;13.814;2023-04-24T00:31:38;13.10;;;10.88;;
49241;SDS011;35079;52.704;13.814;2023-04-24T00:34:04;12.02;;;10.25;;
49241;SDS011;35079;52.704;13.814;2023-04-24T00:36:30;14.98;;;10.45;;
49241;SDS011;35079;52.704;13.814;2023-04-24T00:38:57;13.25;;;11.23;;
49241;SDS011;35079;52.704;13.814;2023-04-24T00:41:24;12.50;;;10.50;;
49241;SDS011;35079;52.704;13.814;2023-04-24T00:43:50;14.60;;;10.77;;
49241;SDS011;35079;52.704;13.814;2023-04-24T00:46:17;14.07;;;10.98;;
49241;SDS011;35079;52.704;13.814;2023-04-24T00:48:42;14.35;;;11.05;;
49241;SDS011;35079;52.704;13.814;2023-04-24T00:51:09;12.13;;;10.50;;
49241;SDS011;35079;52.704;13.814;2023-04-24T00:53:34;17.67;;;11.48;;
49241;SDS011;35079;52.704;13.814;2023-04-24T00:56:00;13.98;;;11.05;;
49241;SDS011;35079;52.704;13.814;2023-04-24T00:58:27;13.55;;;10.73;;
49241;SDS011;35079;52.704;13.814;2023-04-24T01:00:53;13.98;;;10.40;;
49241;SDS011;35079;52.704;13.814;2023-04-24T01:03:21;11.68;;;10.10;;
49241;SDS011;35079;52.704;13.814;2023-04-24T01:05:49;11.38;;;10.13;;
49241;SDS011;35079;52.704;13.814;2023-04-24T01:08:15;13.27;;;10.60;;
49241;SDS011;35079;52.704;13.814;2023-04-24T01:10:41;14.55;;;10.80;;
49241;SDS011;35079;52.704;13.814;2023-04-24T01:13:09;14.93;;;10.50;;
49241;SDS011;35079;52.704;13.814;2023-04-24T01:15:35;12.77;;;10.55;;
49241;SDS011;35079;52.704;13.814;2023-04-24T01:18:01;13.52;;;10.10;;
49241;SDS011;35079;52.704;13.814;2023-04-24T01:20:27;15.32;;;10.23;;
49241;SDS011;35079;52.704;13.814;2023-04-24T01:22:55;15.80;;;10.50;;
49241;SDS011;35079;52.704;13.814;2023-04-24T01:25:21;15.73;;;10.98;;
49241;SDS011;35079;52.704;13.814;2023-04-24T01:27:47;12.18;;;9.65;;
49241;SDS011;35079;52.704;13.814;2023-04-24T01:30:13;12.02;;;9.48;;
49241;SDS011;35079;52.704;13.814;2023-04-24T01:32:39;13.27;;;9.60;;
49241;SDS011;35079;52.704;13.814;2023-04-24T01:35:06;16.13;;;10.02;;
49241;SDS011;35079;52.704;13.814;2023-04-24T01:37:32;13.32;;;10.13;;
49241;SDS011;35079;52.704;13.814;2023-04-24T01:39:58;14.13;;;10.15;;
49241;SDS011;35079;52.704;13.814;2023-04-24T01:42:25;12.30;;;9.50;;
49241;SDS011;35079;52.704;13.814;2023-04-24T01:44:51;12.75;;;10.20;;
49241;SDS011;35079;52.704;13.814;2023-04-24T01:47:16;11.80;;;10.18;;
49241;SDS011;35079;52.704;13.814;2023-04-24T01:49:42;12.73;;;10.23;;
49241;SDS011;35079;52.704;13.814;2023-04-24T01:52:08;14.10;;;9.60;;
49241;SDS011;35079;52.704;13.814;2023-04-24T01:54:34;10.38;;;9.27;;
49241;SDS011;35079;52.704;13.814;2023-04-24T01:56:59;13.77;;;9.65;;
49241;SDS011;35079;52.704;13.814;2023-04-24T01:59:26;13.35;;;9.88;;
49241;SDS011;35079;52.704;13.814;2023-04-24T02:01:53;13.35;;;9.43;;
49241;SDS011;35079;52.704;13.814;2023-04-24T02:04:18;13.18;;;9.65;;
49241;SDS011;35079;52.704;13.814;2023-04-24T02:06:44;10.57;;;8.60;;
49241;SDS011;35079;52.704;13.814;2023-04-24T02:09:10;11.05;;;8.95;;
49241;SDS011;35079;52.704;13.814;2023-04-24T02:11:36;12.13;;;8.93;;
49241;SDS011;35079;52.704;13.814;2023-04-24T02:14:01;12.43;;;9.73;;
49241;SDS011;35079;52.704;13.814;2023-04-24T02:16:28;12.13;;;9.00;;
49241;SDS011;35079;52.704;13.814;2023-04-24T02:18:57;11.85;;;8.68;;
49241;SDS011;35079;52.704;13.814;2023-04-24T02:21:22;11.82;;;8.63;;
49241;SDS011;35079;52.704;13.814;2023-04-24T02:23:48;12.38;;;8.82;;
49241;SDS011;35079;52.704;13.814;2023-04-24T02:26:14;9.32;;;8.20;;
49241;SDS011;35079;52.704;13.814;2023-04-24T02:28:40;10.13;;;8.63;;
49241;SDS011;35079;52.704;13.814;2023-04-24T02:31:05;11.02;;;8.82;;
49241;SDS011;35079;52.704;13.814;2023-04-24T02:33:31;11.30;;;8.55;;
49241;SDS011;35079;52.704;13.814;2023-04-24T02:35:57;10.13;;;8.38;;
49241;SDS011;35079;52.704;13.814;2023-04-24T02:38:22;9.82;;;8.55;;
49241;SDS011;35079;52.704;13.814;2023-04-24T02:40:48;11.10;;;8.60;;
49241;SDS011;35079;52.704;13.814;2023-04-24T02:43:14;11.30;;;8.98;;
49241;SDS011;35079;52.704;13.814;2023-04-24T02:45:39;10.55;;;7.93;;
49241;SDS011;35079;52.704;13.814;2023-04-24T02:48:05;9.05;;;8.02;;
49241;SDS011;35079;52.704;13.814;2023-04-24T02:50:31;9.70;;;8.15;;
49241;SDS011;35079;52.704;13.814;2023-04-24T02:52:57;9.13;;;7.90;;
49241;SDS011;35079;52.704;13.814;2023-04-24T02:55:22;9.45;;;7.75;;
49241;SDS011;35079;52.704;13.814;2023-04-24T02:57:48;10.68;;;8.13;;
49241;SDS011;35079;52.704;13.814;2023-04-24T03:00:13;10.30;;;7.88;;
49241;SDS011;35079;52.704;13.814;2023-04-24T03:02:39;10.07;;;7.50;;
49241;SDS011;35079;52.704;13.814;2023-04-24T03:05:05;9.82;;;8.00;;
49241;SDS011;35079;52.704;13.814;2023-04-24T03:07:31;9.32;;;7.97;;
49241;SDS011;35079;52.704;13.814;2023-04-24T03:09:57;10.73;;;7.70;;
49241;SDS011;35079;52.704;13.814;2023-04-24T03:12:23;9.45;;;7.30;;
49241;SDS011;35079;52.704;13.814;2023-04-24T03:14:49;9.43;;;7.50;;
49241;SDS011;35079;52.704;13.814;2023-04-24T03:17:14;10.18;;;7.70;;
49241;SDS011;35079;52.704;13.814;2023-04-24T03:19:40;8.93;;;7.45;;
49241;SDS011;35079;52.704;13.814;2023-04-24T03:22:06;7.97;;;7.10;;
49241;SDS011;35079;52.704;13.814;2023-04-24T03:24:31;9.82;;;7.65;;
49241;SDS011;35079;52.704;13.814;2023-04-24T03:26:57;10.45;;;6.95;;
49241;SDS011;35079;52.704;13.814;2023-04-24T03:29:22;7.55;;;6.78;;
49241;SDS011;35079;52.704;13.814;2023-04-24T03:31:48;7.40;;;6.43;;
49241;SDS011;35079;52.704;13.814;2023-04-24T03:34:14;7.20;;;6.50;;
49241;SDS011;35079;52.704;13.814;2023-04-24T03:36:39;9.07;;;7.05;;
49241;SDS011;35079;52.704;13.814;2023-04-24T03:39:05;9.65;;;6.80;;
49241;SDS011;35079;52.704;13.814;2023-04-24T03:41:31;7.88;;;6.63;;
49241;SDS011;35079;52.704;13.814;2023-04-24T03:43:56;7.13;;;6.43;;
49241;SDS011;35079;52.704;13.814;2023-04-24T03:46:22;7.72;;;6.38;;
49241;SDS011;35079;52.704;13.814;2023-04-24T03:48:47;9.98;;;7.20;;
49241;SDS011;35079;52.704;13.814;2023-04-24T03:51:13;7.07;;;6.20;;
49241;SDS011;35079;52.704;13.814;2023-04-24T03:53:39;10.30;;;6.85;;
49241;SDS011;35079;52.704;13.814;2023-04-24T03:56:04;7.78;;;6.22;;
49241;SDS011;35079;52.704;13.814;2023-04-24T03:58:30;8.38;;;6.57;;
49241;SDS011;35079;52.704;13.814;2023-04-24T04:00:56;8.23;;;6.22;;
49241;SDS011;35079;52.704;13.814;2023-04-24T04:03:23;6.82;;;6.10;;
49241;SDS011;35079;52.704;13.814;2023-04-24T04:05:48;7.00;;;6.30;;
49241;SDS011;35079;52.704;13.814;2023-04-24T04:08:14;6.55;;;5.88;;
49241;SDS011;35079;52.704;13.814;2023-04-24T04:10:40;8.73;;;6.22;;
49241;SDS011;35079;52.704;13.814;2023-04-24T04:13:05;8.00;;;6.22;;
49241;SDS011;35079;52.704;13.814;2023-04-24T04:15:31;9.18;;;6.32;;
49241;SDS011;35079;52.704;13.814;2023-04-24T04:17:57;9.43;;;6.20;;
49241;SDS011;35079;52.704;13.814;2023-04-24T04:20:22;6.82;;;6.13;;
49241;SDS011;35079;52.704;13.814;2023-04-24T04:22:48;6.80;;;5.85;;
49241;SDS011;35079;52.704;13.814;2023-04-24T04:25:14;7.72;;;6.20;;
49241;SDS011;35079;52.704;13.814;2023-04-24T04:27:39;7.00;;;6.20;;
49241;SDS011;35079;52.704;13.814;2023-04-24T04:30:07;7.38;;;6.60;;
49241;SDS011;35079;52.704;13.814;2023-04-24T04:32:33;7.28;;;6.20;;
49241;SDS011;35079;52.704;13.814;2023-04-24T04:34:59;8.45;;;6.68;;
49241;SDS011;35079;52.704;13.814;2023-04-24T04:37:32;6.78;;;6.05;;
49241;SDS011;35079;52.704;13.814;2023-04-24T04:39:58;8.18;;;6.60;;
49241;SDS011;35079;52.704;13.814;2023-04-24T04:42:24;8.18;;;6.22;;
49241;SDS011;35079;52.704;13.814;2023-04-24T04:44:52;8.23;;;5.93;;
49241;SDS011;35079;52.704;13.814;2023-04-24T04:47:18;9.10;;;6.53;;
49241;SDS011;35079;52.704;13.814;2023-04-24T04:49:46;8.70;;;5.90;;
49241;SDS011;35079;52.704;13.814;2023-04-24T04:52:13;6.70;;;5.60;;
49241;SDS011;35079;52.704;13.814;2023-04-24T04:54:38;7.35;;;6.03;;
49241;SDS011;35079;52.704;13.814;2023-04-24T04:57:04;6.30;;;5.55;;
49241;SDS011;35079;52.704;13.814;2023-04-24T04:59:31;7.35;;;6.03;;
49241;SDS011;35079;52.704;13.814;2023-04-24T05:01:57;6.13;;;5.50;;
49241;SDS011;35079;52.704;13.814;2023-04-24T05:04:22;7.30;;;6.03;;
49241;SDS011;35079;52.704;13.814;2023-04-24T05:06:48;9.07;;;6.13;;
49241;SDS011;35079;52.704;13.814;2023-04-24T05:09:16;7.53;;;5.80;;
49241;SDS011;35079;52.704;13.814;2023-04-24T05:11:41;7.82;;;6.72;;
49241;SDS011;35079;52.704;13.814;2023-04-24T05:14:07;6.80;;;5.82;;
49241;SDS011;35079;52.704;13.814;2023-04-24T05:16:33;8.10;;;5.88;;
49241;SDS011;35079;52.704;13.814;2023-04-24T05:18:58;5.93;;;5.35;;
49241;SDS011;35079;52.704;13.814;2023-04-24T05:21:24;6.18;;;5.50;;
49241;SDS011;35079;52.704;13.814;2023-04-24T05:23:50;10.32;;;6.05;;
49241;SDS011;35079;52.704;13.814;2023-04-24T05:26:15;9.00;;;5.95;;
49241;SDS011;35079;52.704;13.814;2023-04-24T05:28:42;6.57;;;5.72;;
49241;SDS011;35079;52.704;13.814;2023-04-24T05:31:08;8.70;;;6.72;;
49241;SDS011;35079;52.704;13.814;2023-04-24T05:33:33;6.28;;;5.68;;
49241;SDS011;35079;52.704;13.814;2023-04-24T05:35:59;7.15;;;5.72;;
49241;SDS011;35079;52.704;13.814;2023-04-24T05:38:25;8.65;;;6.20;;
49241;SDS011;35079;52.704;13.814;2023-04-24T05:40:50;8.52;;;6.18;;
49241;SDS011;35079;52.704;13.814;2023-04-24T05:43:16;7.22;;;5.72;;
49241;SDS011;35079;52.704;13.814;2023-04-24T05:45:41;7.38;;;5.80;;
49241;SDS011;35079;52.704;13.814;2023-04-24T05:48:07;6.35;;;5.75;;
49241;SDS011;35079;52.704;13.814;2023-04-24T05:50:33;7.65;;;6.03;;
49241;SDS011;35079;52.704;13.814;2023-04-24T05:52:58;8.80;;;6.25;;
49241;SDS011;35079;52.704;13.814;2023-04-24T05:55:24;6.80;;;5.78;;
49241;SDS011;35079;52.704;13.814;2023-04-24T05:57:50;8.10;;;5.68;;
49241;SDS011;35079;52.704;13.814;2023-04-24T06:00:16;6.85;;;6.15;;
49241;SDS011;35079;52.704;13.814;2023-04-24T06:02:44;7.18;;;5.47;;
49241;SDS011;35079;52.704;13.814;2023-04-24T06:05:11;8.07;;;6.30;;
49241;SDS011;35079;52.704;13.814;2023-04-24T06:07:36;9.23;;;6.10;;
49241;SDS011;35079;52.704;13.814;2023-04-24T06:10:02;8.13;;;6.20;;
49241;SDS011;35079;52.704;13.814;2023-04-24T06:12:28;6.03;;;5.43;;
49241;SDS011;35079;52.704;13.814;2023-04-24T06:14:54;7.05;;;5.88;;
49241;SDS011;35079;52.704;13.814;2023-04-24T06:17:20;6.35;;;5.72;;
49241;SDS011;35079;52.704;13.814;2023-04-24T06:19:46;5.88;;;5.35;;
49241;SDS011;35079;52.704;13.814;2023-04-24T06:22:12;6.78;;;5.70;;
49241;SDS011;35079;52.704;13.814;2023-04-24T06:24:39;7.13;;;5.45;;
49241;SDS011;35079;52.704;13.814;2023-04-24T06:27:05;6.78;;;5.70;;
49241;SDS011;35079;52.704;13.814;2023-04-24T06:29:31;6.88;;;5.22;;
49241;SDS011;35079;52.704;13.814;2023-04-24T06:31:58;6.43;;;5.47;;
49241;SDS011;35079;52.704;13.814;2023-04-24T06:34:24;7.35;;;5.63;;
49241;SDS011;35079;52.704;13.814;2023-04-24T06:36:50;8.77;;;5.45;;
49241;SDS011;35079;52.704;13.814;2023-04-24T06:39:16;7.53;;;5.63;;
49241;SDS011;35079;52.704;13.814;2023-04-24T06:41:41;6.13;;;5.60;;
49241;SDS011;35079;52.704;13.814;2023-04-24T06:44:07;7.85;;;5.47;;
49241;SDS011;35079;52.704;13.814;2023-04-24T06:46:33;6.25;;;5.13;;
49241;SDS011;35079;52.704;13.814;2023-04-24T06:48:59;7.28;;;4.65;;
49241;SDS011;35079;52.704;13.814;2023-04-24T06:51:26;7.75;;;4.30;;
49241;SDS011;35079;52.704;13.814;2023-04-24T06:53:55;5.63;;;4.15;;
49241;SDS011;35079;52.704;13.814;2023-04-24T06:56:21;4.60;;;4.13;;
49241;SDS011;35079;52.704;13.814;2023-04-24T06:58:47;6.70;;;3.80;;
49241;SDS011;35079;52.704;13.814;2023-04-24T07:01:13;4.28;;;3.53;;
49241;SDS011;35079;52.704;13.814;2023-04-24T07:03:39;3.85;;;3.55;;
49241;SDS011;35079;52.704;13.814;2023-04-24T07:06:05;3.92;;;3.58;;
49241;SDS011;35079;52.704;13.814;2023-04-24T07:08:31;4.72;;;3.75;;
49241;SDS011;35079;52.704;13.814;2023-04-24T07:10:58;4.55;;;3.53;;
49241;SDS011;35079;52.704;13.814;2023-04-24T07:13:24;4.80;;;3.30;;
49241;SDS011;35079;52.704;13.814;2023-04-24T07:15:51;3.60;;;3.30;;
49241;SDS011;35079;52.704;13.814;2023-04-24T07:18:19;5.00;;;3.28;;
49241;SDS011;35079;52.704;13.814;2023-04-24T07:20:45;4.03;;;2.70;;
49241;SDS011;35079;52.704;13.814;2023-04-24T07:23:11;2.60;;;2.33;;
49241;SDS011;35079;52.704;13.814;2023-04-24T07:25:37;3.85;;;2.47;;
49241;SDS011;35079;52.704;13.814;2023-04-24T07:28:03;2.40;;;2.20;;
49241;SDS011;35079;52.704;13.814;2023-04-24T07:30:29;4.18;;;2.67;;
49241;SDS011;35079;52.704;13.814;2023-04-24T07:32:57;3.10;;;2.20;;
49241;SDS011;35079;52.704;13.814;2023-04-24T07:35:23;2.38;;;2.17;;
49241;SDS011;35079;52.704;13.814;2023-04-24T07:37:50;2.28;;;2.08;;
49241;SDS011;35079;52.704;13.814;2023-04-24T07:40:17;4.45;;;2.40;;
49241;SDS011;35079;52.704;13.814;2023-04-24T07:42:43;2.60;;;1.88;;
49241;SDS011;35079;52.704;13.814;2023-04-24T07:45:09;2.08;;;1.85;;
49241;SDS011;35079;52.704;13.814;2023-04-24T07:47:35;2.58;;;1.80;;
49241;SDS011;35079;52.704;13.814;2023-04-24T07:50:02;2.30;;;2.08;;
49241;SDS011;35079;52.704;13.814;2023-04-24T07:52:28;2.47;;;2.00;;
49241;SDS011;35079;52.704;13.814;2023-04-24T07:54:54;3.90;;;2.17;;
49241;SDS011;35079;52.704;13.814;2023-04-24T07:57:24;2.03;;;1.80;;
49241;SDS011;35079;52.704;13.814;2023-04-24T07:59:50;2.08;;;1.88;;
49241;SDS011;35079;52.704;13.814;2023-04-24T08:02:16;5.78;;;1.95;;
49241;SDS011;35079;52.704;13.814;2023-04-24T08:04:42;3.15;;;1.52;;
49241;SDS011;35079;52.704;13.814;2023-04-24T08:07:07;2.70;;;1.50;;
49241;SDS011;35079;52.704;13.814;2023-04-24T08:09:33;2.13;;;1.58;;
49241;SDS011;35079;52.704;13.814;2023-04-24T08:11:59;1.83;;;1.60;;
49241;SDS011;35079;52.704;13.814;2023-04-24T08:14:26;1.30;;;1.20;;
49241;SDS011;35079;52.704;13.814;2023-04-24T08:16:53;1.17;;;1.10;;
49241;SDS011;35079;52.704;13.814;2023-04-24T08:19:20;1.85;;;1.10;;
49241;SDS011;35079;52.704;13.814;2023-04-24T08:21:46;4.03;;;1.27;;
49241;SDS011;35079;52.704;13.814;2023-04-24T08:24:12;1.52;;;1.38;;
49241;SDS011;35079;52.704;13.814;2023-04-24T08:26:38;1.58;;;1.38;;
49241;SDS011;35079;52.704;13.814;2023-04-24T08:29:04;1.48;;;1.38;;
49241;SDS011;35079;52.704;13.814;2023-04-24T08:31:31;2.28;;;1.50;;
49241;SDS011;35079;52.704;13.814;2023-04-24T08:33:57;2.63;;;1.20;;
49241;SDS011;35079;52.704;13.814;2023-04-24T08:36:24;2.83;;;1.13;;
49241;SDS011;35079;52.704;13.814;2023-04-24T08:38:51;1.30;;;1.20;;
49241;SDS011;35079;52.704;13.814;2023-04-24T08:41:17;2.88;;;1.27;;
49241;SDS011;35079;52.704;13.814;2023-04-24T08:43:45;2.97;;;1.02;;
49241;SDS011;35079;52.704;13.814;2023-04-24T08:46:11;1.30;;;1.20;;
49241;SDS011;35079;52.704;13.814;2023-04-24T08:48:38;1.13;;;1.05;;
49241;SDS011;35079;52.704;13.814;2023-04-24T08:51:06;1.70;;;1.30;;
49241;SDS011;35079;52.704;13.814;2023-04-24T08:53:32;3.58;;;1.58;;
49241;SDS011;35079;52.704;13.814;2023-04-24T08:55:59;1.30;;;1.10;;
49241;SDS011;35079;52.704;13.814;2023-04-24T08:58:27;3.33;;;1.05;;
49241;SDS011;35079;52.704;13.814;2023-04-24T09:00:56;2.88;;;1.08;;
49241;SDS011;35079;52.704;13.814;2023-04-24T09:03:23;1.70;;;0.80;;
49241;SDS011;35079;52.704;13.814;2023-04-24T09:05:49;0.95;;;0.93;;
49241;SDS011;35079;52.704;13.814;2023-04-24T09:08:18;0.93;;;0.80;;
49241;SDS011;35079;52.704;13.814;2023-04-24T09:10:44;1.40;;;0.80;;
49241;SDS011;35079;52.704;13.814;2023-04-24T09:13:10;1.00;;;0.90;;
49241;SDS011;35079;52.704;13.814;2023-04-24T09:15:37;0.80;;;0.80;;
49241;SDS011;35079;52.704;13.814;2023-04-24T09:18:03;2.35;;;0.65;;
49241;SDS011;35079;52.704;13.814;2023-04-24T09:20:29;1.85;;;0.73;;
49241;SDS011;35079;52.704;13.814;2023-04-24T09:22:58;1.50;;;0.70;;
49241;SDS011;35079;52.704;13.814;2023-04-24T09:25:31;1.27;;;0.70;;
49241;SDS011;35079;52.704;13.814;2023-04-24T09:28:02;0.68;;;0.60;;
49241;SDS011;35079;52.704;13.814;2023-04-24T09:30:29;2.28;;;0.50;;
49241;SDS011;35079;52.704;13.814;2023-04-24T09:33:13;0.60;;;0.60;;
49241;SDS011;35079;52.704;13.814;2023-04-24T09:35:40;1.15;;;0.52;;
49241;SDS011;35079;52.704;13.814;2023-04-24T09:38:15;0.90;;;0.57;;
49241;SDS011;35079;52.704;13.814;2023-04-24T09:40:41;0.57;;;0.50;;
49241;SDS011;35079;52.704;13.814;2023-04-24T09:43:10;0.93;;;0.70;;
49241;SDS011;35079;52.704;13.814;2023-04-24T09:45:39;0.75;;;0.60;;
49241;SDS011;35079;52.704;13.814;2023-04-24T09:48:05;1.77;;;0.75;;
49241;SDS011;35079;52.704;13.814;2023-04-24T09:50:35;0.80;;;0.70;;
49241;SDS011;35079;52.704;13.814;2023-04-24T09:53:01;2.53;;;1.08;;
49241;SDS011;35079;52.704;13.814;2023-04-24T09:55:28;5.18;;;0.80;;
49241;SDS011;35079;52.704;13.814;2023-04-24T09:57:56;1.73;;;0.50;;
49241;SDS011;35079;52.704;13.814;2023-04-24T10:00:22;1.02;;;0.80;;
49241;SDS011;35079;52.704;13.814;2023-04-24T10:02:50;1.15;;;0.80;;
49241;SDS011;35079;52.704;13.814;2023-04-24T10:05:22;1.20;;;0.75;;
49241;SDS011;35079;52.704;13.814;2023-04-24T10:07:49;1.63;;;0.63;;
49241;SDS011;35079;52.704;13.814;2023-04-24T10:10:16;1.35;;;1.00;;
49241;SDS011;35079;52.704;13.814;2023-04-24T10:12:42;1.17;;;0.90;;
49241;SDS011;35079;52.704;13.814;2023-04-24T10:15:10;2.15;;;1.23;;
49241;SDS011;35079;52.704;13.814;2023-04-24T10:17:37;1.83;;;0.90;;
49241;SDS011;35079;52.704;13.814;2023-04-24T10:20:05;1.70;;;0.85;;
49241;SDS011;35079;52.704;13.814;2023-04-24T10:22:32;3.83;;;1.10;;
49241;SDS011;35079;52.704;13.814;2023-04-24T10:24:58;2.10;;;1.02;;
49241;SDS011;35079;52.704;13.814;2023-04-24T10:27:25;1.92;;;0.93;;
49241;SDS011;35079;52.704;13.814;2023-04-24T10:29:53;0.75;;;0.75;;
49241;SDS011;35079;52.704;13.814;2023-04-24T10:32:18;1.88;;;0.88;;
49241;SDS011;35079;52.704;13.814;2023-04-24T10:34:44;0.95;;;0.77;;
49241;SDS011;35079;52.704;13.814;2023-04-24T10:37:10;0.95;;;0.80;;
49241;SDS011;35079;52.704;13.814;2023-04-24T10:39:36;1.73;;;0.88;;
49241;SDS011;35079;52.704;13.814;2023-04-24T10:42:15;3.42;;;0.88;;
49241;SDS011;35079;52.704;13.814;2023-04-24T10:44:41;1.02;;;0.70;;
49241;SDS011;35079;52.704;13.814;2023-04-24T10:47:08;0.60;;;0.60;;
49241;SDS011;35079;52.704;13.814;2023-04-24T10:49:39;2.53;;;0.80;;
49241;SDS011;35079;52.704;13.814;2023-04-24T10:52:05;2.05;;;0.60;;
49241;SDS011;35079;52.704;13.814;2023-04-24T11:02:38;0.70;;;0.70;;
49241;SDS011;35079;52.704;13.814;2023-04-24T11:05:05;1.40;;;0.80;;
49241;SDS011;35079;52.704;13.814;2023-04-24T11:10:46;1.52;;;0.60;;
49241;SDS011;35079;52.704;13.814;2023-04-24T11:13:21;2.50;;;0.80;;
49241;SDS011;35079;52.704;13.814;2023-04-24T11:19:36;1.05;;;1.00;;
49241;SDS011;35079;52.704;13.814;2023-04-24T11:27:12;1.60;;;0.70;;
49241;SDS011;35079;52.704;13.814;2023-04-24T11:32:14;1.70;;;0.70;;
49241;SDS011;35079;52.704;13.814;2023-04-24T11:34:50;2.60;;;0.50;;
49241;SDS011;35079;52.704;13.814;2023-04-24T11:37:17;2.85;;;0.60;;
49241;SDS011;35079;52.704;13.814;2023-04-24T11:39:43;1.33;;;0.60;;
49241;SDS011;35079;52.704;13.814;2023-04-24T11:42:09;1.02;;;0.50;;
49241;SDS011;35079;52.704;13.814;2023-04-24T11:44:35;0.93;;;0.70;;
49241;SDS011;35079;52.704;13.814;2023-04-24T11:47:05;1.17;;;0.50;;
49241;SDS011;35079;52.704;13.814;2023-04-24T11:49:37;1.83;;;0.60;;
49241;SDS011;35079;52.704;13.814;2023-04-24T11:52:03;0.50;;;0.50;;
49241;SDS011;35079;52.704;13.814;2023-04-24T11:54:30;2.10;;;0.52;;
49241;SDS011;35079;52.704;13.814;2023-04-24T11:56:56;1.73;;;0.50;;
49241;SDS011;35079;52.704;13.814;2023-04-24T11:59:22;1.40;;;0.65;;
49241;SDS011;35079;52.704;13.814;2023-04-24T12:01:49;1.05;;;0.60;;
49241;SDS011;35079;52.704;13.814;2023-04-24T12:04:15;2.40;;;0.73;;
49241;SDS011;35079;52.704;13.814;2023-04-24T12:07:01;1.27;;;0.60;;
49241;SDS011;35079;52.704;13.814;2023-04-24T12:09:28;3.70;;;0.60;;
49241;SDS011;35079;52.704;13.814;2023-04-24T12:11:55;1.92;;;0.60;;
49241;SDS011;35079;52.704;13.814;2023-04-24T12:14:24;1.33;;;0.73;;
49241;SDS011;35079;52.704;13.814;2023-04-24T12:16:50;1.48;;;0.75;;
49241;SDS011;35079;52.704;13.814;2023-04-24T12:19:23;1.73;;;0.50;;
49241;SDS011;35079;52.704;13.814;2023-04-24T12:22:01;1.88;;;0.70;;
49241;SDS011;35079;52.704;13.814;2023-04-24T12:24:28;1.38;;;0.57;;
49241;SDS011;35079;52.704;13.814;2023-04-24T12:26:55;0.70;;;0.70;;
49241;SDS011;35079;52.704;13.814;2023-04-24T12:29:22;2.33;;;1.10;;
49241;SDS011;35079;52.704;13.814;2023-04-24T12:31:49;0.75;;;0.70;;
49241;SDS011;35079;52.704;13.814;2023-04-24T12:34:20;1.75;;;0.70;;
49241;SDS011;35079;52.704;13.814;2023-04-24T12:36:46;0.75;;;0.52;;
49241;SDS011;35079;52.704;13.814;2023-04-24T12:39:19;1.30;;;0.77;;
49241;SDS011;35079;52.704;13.814;2023-04-24T12:41:55;2.33;;;0.80;;
49241;SDS011;35079;52.704;13.814;2023-04-24T12:44:32;0.60;;;0.50;;
49241;SDS011;35079;52.704;13.814;2023-04-24T12:46:59;0.63;;;0.43;;
49241;SDS011;35079;52.704;13.814;2023-04-24T12:49:26;1.75;;;0.60;;
49241;SDS011;35079;52.704;13.814;2023-04-24T12:51:53;1.13;;;0.40;;
49241;SDS011;35079;52.704;13.814;2023-04-24T12:54:19;0.85;;;0.57;;
49241;SDS011;35079;52.704;13.814;2023-04-24T12:56:45;0.60;;;0.43;;
49241;SDS011;35079;52.704;13.814;2023-04-24T12:59:10;0.73;;;0.50;;
49241;SDS011;35079;52.704;13.814;2023-04-24T13:01:36;1.30;;;0.57;;
49241;SDS011;35079;52.704;13.814;2023-04-24T13:04:02;1.05;;;0.73;;
49241;SDS011;35079;52.704;13.814;2023-04-24T13:06:28;0.60;;;0.40;;
49241;SDS011;35079;52.704;13.814;2023-04-24T13:08:54;0.63;;;0.40;;
49241;SDS011;35079;52.704;13.814;2023-04-24T13:11:22;1.33;;;0.65;;
49241;SDS011;35079;52.704;13.814;2023-04-24T13:13:49;3.28;;;0.88;;
49241;SDS011;35079;52.704;13.814;2023-04-24T13:16:15;2.80;;;0.80;;
49241;SDS011;35079;52.704;13.814;2023-04-24T13:18:43;1.60;;;0.70;;
49241;SDS011;35079;52.704;13.814;2023-04-24T13:21:09;0.60;;;0.60;;
49241;SDS011;35079;52.704;13.814;2023-04-24T13:23:34;1.00;;;0.70;;
49241;SDS011;35079;52.704;13.814;2023-04-24T13:26:00;0.90;;;0.60;;
49241;SDS011;35079;52.704;13.814;2023-04-24T13:28:26;3.22;;;0.70;;
49241;SDS011;35079;52.704;13.814;2023-04-24T13:30:52;1.15;;;0.80;;
49241;SDS011;35079;52.704;13.814;2023-04-24T13:33:18;1.10;;;0.73;;
49241;SDS011;35079;52.704;13.814;2023-04-24T13:35:44;1.38;;;0.80;;
49241;SDS011;35079;52.704;13.814;2023-04-24T13:38:09;1.83;;;0.70;;
49241;SDS011;35079;52.704;13.814;2023-04-24T13:40:35;2.17;;;0.75;;
49241;SDS011;35079;52.704;13.814;2023-04-24T13:43:01;0.68;;;0.60;;
49241;SDS011;35079;52.704;13.814;2023-04-24T13:45:27;1.73;;;0.60;;
49241;SDS011;35079;52.704;13.814;2023-04-24T13:47:53;1.50;;;0.98;;
49241;SDS011;35079;52.704;13.814;2023-04-24T13:50:20;2.20;;;0.75;;
49241;SDS011;35079;52.704;13.814;2023-04-24T13:52:46;2.00;;;0.85;;
49241;SDS011;35079;52.704;13.814;2023-04-24T13:55:11;1.77;;;0.63;;
49241;SDS011;35079;52.704;13.814;2023-04-24T13:57:37;2.20;;;0.70;;
49241;SDS011;35079;52.704;13.814;2023-04-24T14:00:03;0.75;;;0.73;;
49241;SDS011;35079;52.704;13.814;2023-04-24T14:02:31;2.03;;;0.88;;
49241;SDS011;35079;52.704;13.814;2023-04-24T14:04:57;2.38;;;0.65;;
49241;SDS011;35079;52.704;13.814;2023-04-24T14:07:22;1.20;;;0.60;;
49241;SDS011;35079;52.704;13.814;2023-04-24T14:09:48;1.90;;;0.70;;
49241;SDS011;35079;52.704;13.814;2023-04-24T14:12:14;1.25;;;0.77;;
49241;SDS011;35079;52.704;13.814;2023-04-24T14:14:43;0.93;;;0.60;;
49241;SDS011;35079;52.704;13.814;2023-04-24T14:17:09;2.38;;;0.80;;
49241;SDS011;35079;52.704;13.814;2023-04-24T14:19:35;1.08;;;0.70;;
49241;SDS011;35079;52.704;13.814;2023-04-24T14:22:01;1.25;;;0.60;;
49241;SDS011;35079;52.704;13.814;2023-04-24T14:24:26;1.45;;;0.75;;
49241;SDS011;35079;52.704;13.814;2023-04-24T14:26:52;0.57;;;0.57;;
49241;SDS011;35079;52.704;13.814;2023-04-24T14:29:17;3.00;;;0.80;;
49241;SDS011;35079;52.704;13.814;2023-04-24T14:31:44;1.13;;;0.95;;
49241;SDS011;35079;52.704;13.814;2023-04-24T14:34:10;1.65;;;0.80;;
49241;SDS011;35079;52.704;13.814;2023-04-24T14:36:36;1.27;;;0.82;;
49241;SDS011;35079;52.704;13.814;2023-04-24T14:39:01;1.50;;;0.70;;
49241;SDS011;35079;52.704;13.814;2023-04-24T14:41:31;2.25;;;1.00;;
49241;SDS011;35079;52.704;13.814;2023-04-24T14:44:01;3.08;;;0.80;;
49241;SDS011;35079;52.704;13.814;2023-04-24T14:46:28;1.25;;;0.70;;
49241;SDS011;35079;52.704;13.814;2023-04-24T14:48:55;1.38;;;0.80;;